sensor_id;sensor_type;location;lat;lon;timestamp;temperature;humidity
43528;DHT22;52359;42.658;23.320;2022-07-22T01:53:29;20.70;96.30
43528;DHT22;52359;42.658;23.320;2022-07-22T01:55:54;20.70;97.00
43528;DHT22;52359;42.658;23.320;2022-07-22T02:00:47;20.30;97.40
43528;DHT22;52359;42.658;23.320;2022-07-22T02:03:13;20.40;96.80
43528;DHT22;52359;42.658;23.320;2022-07-22T02:05:39;20.30;97.10
43528;DHT22;52359;42.658;23.320;2022-07-22T02:08:07;20.00;97.50
43528;DHT22;52359;42.658;23.320;2022-07-22T02:10:34;20.00;97.40
43528;DHT22;52359;42.658;23.320;2022-07-22T02:13:00;20.10;97.30
43528;DHT22;52359;42.658;23.320;2022-07-22T02:15:27;20.30;98.30
43528;DHT22;52359;42.658;23.320;2022-07-22T02:17:53;20.20;97.90
43528;DHT22;52359;42.658;23.320;2022-07-22T02:20:19;20.10;97.90
43528;DHT22;52359;42.658;23.320;2022-07-22T02:22:44;20.00;98.10
43528;DHT22;52359;42.658;23.320;2022-07-22T02:25:10;20.00;98.30
43528;DHT22;52359;42.658;23.320;2022-07-22T02:27:37;20.00;98.50
43528;DHT22;52359;42.658;23.320;2022-07-22T02:30:04;19.80;98.50
43528;DHT22;52359;42.658;23.320;2022-07-22T02:32:30;20.00;98.60
43528;DHT22;52359;42.658;23.320;2022-07-22T02:34:56;19.90;99.00
43528;DHT22;52359;42.658;23.320;2022-07-22T02:37:22;19.90;99.50
43528;DHT22;52359;42.658;23.320;2022-07-22T02:39:47;19.90;99.90
43528;DHT22;52359;42.658;23.320;2022-07-22T03:43:06;19.30;99.90
43528;DHT22;52359;42.658;23.320;2022-07-22T03:45:31;19.20;99.90
43528;DHT22;52359;42.658;23.320;2022-07-22T04:14:56;19.70;99.90
43528;DHT22;52359;42.658;23.320;2022-07-22T17:45:56;29.60;74.10
43528;DHT22;52359;42.658;23.320;2022-07-22T17:48:22;29.40;69.70
43528;DHT22;52359;42.658;23.320;2022-07-22T17:50:47;29.30;70.30
43528;DHT22;52359;42.658;23.320;2022-07-22T17:53:13;29.10;71.40
43528;DHT22;52359;42.658;23.320;2022-07-22T17:55:39;29.00;71.40
43528;DHT22;52359;42.658;23.320;2022-07-22T17:58:05;28.90;71.90
43528;DHT22;52359;42.658;23.320;2022-07-22T18:00:31;28.80;72.90
43528;DHT22;52359;42.658;23.320;2022-07-22T18:12:42;28.50;68.00
43528;DHT22;52359;42.658;23.320;2022-07-22T18:15:09;28.50;71.50
43528;DHT22;52359;42.658;23.320;2022-07-22T18:17:34;28.40;70.30
43528;DHT22;52359;42.658;23.320;2022-07-22T18:20:04;28.40;69.60
43528;DHT22;52359;42.658;23.320;2022-07-22T18:24:56;28.30;70.10
43528;DHT22;52359;42.658;23.320;2022-07-22T18:27:22;28.10;68.60
43528;DHT22;52359;42.658;23.320;2022-07-22T18:29:48;28.20;68.50
43528;DHT22;52359;42.658;23.320;2022-07-22T18:32:14;28.10;68.80
43528;DHT22;52359;42.658;23.320;2022-07-22T18:34:40;27.90;69.30
43528;DHT22;52359;42.658;23.320;2022-07-22T18:37:06;27.90;68.00
43528;DHT22;52359;42.658;23.320;2022-07-22T18:39:32;27.80;71.00
43528;DHT22;52359;42.658;23.320;2022-07-22T18:41:58;27.90;72.80
43528;DHT22;52359;42.658;23.320;2022-07-22T18:44:24;27.80;71.80
43528;DHT22;52359;42.658;23.320;2022-07-22T18:46:50;27.60;75.00
43528;DHT22;52359;42.658;23.320;2022-07-22T18:49:15;27.50;71.50
43528;DHT22;52359;42.658;23.320;2022-07-22T18:51:41;27.50;69.90
43528;DHT22;52359;42.658;23.320;2022-07-22T18:54:08;27.40;69.50
43528;DHT22;52359;42.658;23.320;2022-07-22T18:56:34;27.50;69.90
43528;DHT22;52359;42.658;23.320;2022-07-22T18:59:00;27.30;70.10
43528;DHT22;52359;42.658;23.320;2022-07-22T19:01:25;27.30;70.50
43528;DHT22;52359;42.658;23.320;2022-07-22T19:08:43;27.20;77.20
43528;DHT22;52359;42.658;23.320;2022-07-22T19:11:09;27.00;74.00
43528;DHT22;52359;42.658;23.320;2022-07-22T19:13:35;27.10;74.30
43528;DHT22;52359;42.658;23.320;2022-07-22T19:28:12;26.70;65.60
43528;DHT22;52359;42.658;23.320;2022-07-22T19:30:39;26.60;73.10
43528;DHT22;52359;42.658;23.320;2022-07-22T21:37:23;23.20;90.40
43528;DHT22;52359;42.658;23.320;2022-07-22T21:39:49;23.20;90.10
43528;DHT22;52359;42.658;23.320;2022-07-22T21:47:07;23.10;89.30
43528;DHT22;52359;42.658;23.320;2022-07-22T21:49:33;23.00;88.70
43528;DHT22;52359;42.658;23.320;2022-07-22T21:51:58;22.80;89.60
43528;DHT22;52359;42.658;23.320;2022-07-22T21:54:24;22.90;89.50
43528;DHT22;52359;42.658;23.320;2022-07-22T21:56:50;22.70;89.40
43528;DHT22;52359;42.658;23.320;2022-07-22T21:59:20;22.90;91.90
43528;DHT22;52359;42.658;23.320;2022-07-22T22:04:14;22.50;90.80
43528;DHT22;52359;42.658;23.320;2022-07-22T22:09:06;22.60;91.10
43528;DHT22;52359;42.658;23.320;2022-07-22T22:11:31;22.60;91.30
43528;DHT22;52359;42.658;23.320;2022-07-22T22:13:57;22.70;91.20
43528;DHT22;52359;42.658;23.320;2022-07-22T22:16:23;22.60;91.90
43528;DHT22;52359;42.658;23.320;2022-07-22T22:18:49;22.70;92.10
43528;DHT22;52359;42.658;23.320;2022-07-22T22:21:14;22.70;91.90
43528;DHT22;52359;42.658;23.320;2022-07-22T22:23:40;22.60;92.00
43528;DHT22;52359;42.658;23.320;2022-07-22T22:26:06;22.50;92.10
43528;DHT22;52359;42.658;23.320;2022-07-22T22:28:32;22.30;92.10
43528;DHT22;52359;42.658;23.320;2022-07-22T22:30:57;22.20;92.00
43528;DHT22;52359;42.658;23.320;2022-07-22T22:33:23;22.20;91.90
43528;DHT22;52359;42.658;23.320;2022-07-22T22:35:50;22.30;92.20
43528;DHT22;52359;42.658;23.320;2022-07-22T22:38:16;22.10;92.30
43528;DHT22;52359;42.658;23.320;2022-07-22T22:40:41;22.20;92.70
43528;DHT22;52359;42.658;23.320;2022-07-22T22:43:07;22.00;92.20
43528;DHT22;52359;42.658;23.320;2022-07-22T22:45:33;21.80;92.20
43528;DHT22;52359;42.658;23.320;2022-07-22T22:47:58;22.00;92.40
43528;DHT22;52359;42.658;23.320;2022-07-22T22:50:24;22.00;92.30
43528;DHT22;52359;42.658;23.320;2022-07-22T22:52:50;22.00;92.50
43528;DHT22;52359;42.658;23.320;2022-07-22T22:55:15;21.90;92.70
43528;DHT22;52359;42.658;23.320;2022-07-22T22:57:41;21.70;92.70
43528;DHT22;52359;42.658;23.320;2022-07-22T23:00:07;21.80;93.00
43528;DHT22;52359;42.658;23.320;2022-07-22T23:02:33;21.50;92.80
43528;DHT22;52359;42.658;23.320;2022-07-22T23:04:59;21.70;92.80
43528;DHT22;52359;42.658;23.320;2022-07-22T23:07:25;21.40;92.90
43528;DHT22;52359;42.658;23.320;2022-07-22T23:09:50;21.50;93.10
43528;DHT22;52359;42.658;23.320;2022-07-22T23:12:16;21.60;93.20
43528;DHT22;52359;42.658;23.320;2022-07-22T23:14:42;21.40;92.90
43528;DHT22;52359;42.658;23.320;2022-07-22T23:17:07;21.30;93.30
43528;DHT22;52359;42.658;23.320;2022-07-22T23:19:33;21.30;93.40
43528;DHT22;52359;42.658;23.320;2022-07-22T23:21:59;21.40;93.80
43528;DHT22;52359;42.658;23.320;2022-07-22T23:26:52;21.40;93.80
43528;DHT22;52359;42.658;23.320;2022-07-22T23:29:17;21.10;94.80
43528;DHT22;52359;42.658;23.320;2022-07-22T23:31:43;21.20;93.90
43528;DHT22;52359;42.658;23.320;2022-07-22T23:34:09;21.10;93.70
43528;DHT22;52359;42.658;23.320;2022-07-22T23:48:45;21.00;94.40
43528;DHT22;52359;42.658;23.320;2022-07-22T23:56:03;21.00;95.20
43528;DHT22;52359;42.658;23.320;2022-07-22T23:58:29;20.80;94.30
